KLM735 EHAM-TNCC
Flight info
| Callsign | KLM735 |
|---|---|
| Flight time | N/A |
| Altitude | 34000 |
| Route | BERGI L602 NALAX L46 GETNO DCT MOLAK DCT KOKIB DCT VENER/M084F340 DCT 5430N02000W 5330N03000W 51N040W 44N050W/M084F360 35N060W DCT LAZEY DCT GECAL/M084F380 DCT VINSO DCT LUCTI/N0483F380 DCT JSTIN/N0481F370 L453 ASIVO/N0482F380 DCT KARUM KARUM1B |
| Aircraft | B77W/H-SDE1E2E3FGHIJ2J3J4J5M1RWXY/LB1D1 |
Departure
| Time | N/A |
|---|---|
| Airport | Amsterdam Airport Schiphol (EHAM) |
Arrival
| Time | 2026-04-19 08:50 |
|---|---|
| Airport | Hato International Airport (TNCC) |
| Time | Latitude | Longitude | Altitude | Speed | Heading |
|---|---|---|---|---|---|
| 2026-04-19 08:24 | 14.21740 | -69.18240 | 31897 ft | 452 kts | 134° |
| 2026-04-19 08:24 | 14.16674 | -69.14592 | 31895 ft | 453 kts | 165° |
| 2026-04-19 08:25 | 14.13555 | -69.14255 | 31892 ft | 453 kts | 186° |
| 2026-04-19 08:25 | 14.10522 | -69.15077 | 31893 ft | 453 kts | 206° |
| 2026-04-19 08:25 | 14.07935 | -69.16904 | 31908 ft | 453 kts | 222° |
| 2026-04-19 08:25 | 14.05669 | -69.19084 | 31898 ft | 456 kts | 221° |
| 2026-04-19 08:26 | 14.03084 | -69.20967 | 31884 ft | 457 kts | 205° |
| 2026-04-19 08:26 | 14.00054 | -69.22022 | 31446 ft | 469 kts | 188° |
| 2026-04-19 08:26 | 13.96771 | -69.22065 | 30933 ft | 481 kts | 171° |
| 2026-04-19 08:26 | 13.93509 | -69.21111 | 30310 ft | 495 kts | 155° |
| 2026-04-19 08:27 | 13.90500 | -69.19311 | 29708 ft | 506 kts | 145° |
| 2026-04-19 08:27 | 13.87578 | -69.17231 | 29105 ft | 515 kts | 148° |
| 2026-04-19 08:27 | 13.84310 | -69.15677 | 28521 ft | 521 kts | 165° |
| 2026-04-19 08:27 | 13.80730 | -69.15215 | 27891 ft | 517 kts | 182° |
| 2026-04-19 08:28 | 13.77260 | -69.15908 | 27218 ft | 505 kts | 201° |
| 2026-04-19 08:28 | 13.74221 | -69.17550 | 26585 ft | 497 kts | 213° |
| 2026-04-19 08:28 | 13.71356 | -69.19496 | 25970 ft | 491 kts | 211° |
| 2026-04-19 08:28 | 13.68289 | -69.20982 | 25384 ft | 485 kts | 196° |
| 2026-04-19 08:29 | 13.64962 | -69.21461 | 24791 ft | 485 kts | 178° |
| 2026-04-19 08:29 | 13.61614 | -69.20878 | 24163 ft | 494 kts | 162° |
| 2026-04-19 08:29 | 13.58443 | -69.19449 | 23530 ft | 503 kts | 152° |
| 2026-04-19 08:29 | 13.55311 | -69.17794 | 22897 ft | 509 kts | 155° |
| 2026-04-19 08:30 | 13.51942 | -69.16637 | 22264 ft | 513 kts | 170° |
| 2026-04-19 08:30 | 13.48376 | -69.16553 | 21624 ft | 516 kts | 188° |
| 2026-04-19 08:30 | 13.44910 | -69.17533 | 20961 ft | 518 kts | 201° |
| 2026-04-19 08:30 | 13.41603 | -69.19019 | 20285 ft | 519 kts | 204° |
| 2026-04-19 08:31 | 13.38277 | -69.20324 | 19627 ft | 520 kts | 196° |
| 2026-04-19 08:31 | 13.34715 | -69.20887 | 18975 ft | 519 kts | 180° |
| 2026-04-19 08:31 | 13.31255 | -69.20375 | 18607 ft | 472 kts | 166° |
| 2026-04-19 08:31 | 13.28272 | -69.19559 | 18034 ft | 435 kts | 166° |
| 2026-04-19 08:32 | 13.25418 | -69.18895 | 17220 ft | 409 kts | 170° |
| 2026-04-19 08:32 | 13.22677 | -69.18505 | 16539 ft | 385 kts | 175° |
| 2026-04-19 08:32 | 13.20123 | -69.18333 | 15994 ft | 363 kts | 174° |
| 2026-04-19 08:32 | 13.17646 | -69.18279 | 15372 ft | 349 kts | 175° |
| 2026-04-19 08:33 | 13.15264 | -69.18280 | 14862 ft | 337 kts | 176° |
| 2026-04-19 08:33 | 13.12941 | -69.18301 | 14393 ft | 332 kts | 176° |
| 2026-04-19 08:33 | 13.10620 | -69.18326 | 13944 ft | 338 kts | 176° |
| 2026-04-19 08:33 | 13.08142 | -69.18348 | 13503 ft | 371 kts | 180° |
| 2026-04-19 08:34 | 13.05511 | -69.18380 | 12961 ft | 383 kts | 181° |
| 2026-04-19 08:34 | 13.02839 | -69.18416 | 12412 ft | 384 kts | 181° |
| 2026-04-19 08:34 | 13.00167 | -69.18450 | 11862 ft | 383 kts | 181° |
| 2026-04-19 08:34 | 12.97512 | -69.18483 | 11319 ft | 380 kts | 181° |
| 2026-04-19 08:35 | 12.97008 | -69.18489 | 11216 ft | 380 kts | 181° |
| 2026-04-19 08:35 | 12.95334 | -69.18510 | 10946 ft | 377 kts | 181° |
| 2026-04-19 08:36 | 12.92751 | -69.18541 | 10699 ft | 366 kts | 181° |
| 2026-04-19 08:36 | 12.90240 | -69.18571 | 10525 ft | 355 kts | 181° |
| 2026-04-19 08:36 | 12.87814 | -69.18599 | 10361 ft | 342 kts | 181° |
| 2026-04-19 08:36 | 12.85472 | -69.18625 | 10216 ft | 331 kts | 181° |
| 2026-04-19 08:37 | 12.83202 | -69.18638 | 10071 ft | 321 kts | 179° |
| 2026-04-19 08:37 | 12.82934 | -69.18639 | 10055 ft | 320 kts | 179° |
| 2026-04-19 08:37 | 12.81032 | -69.18644 | 9913 ft | 311 kts | 178° |
| 2026-04-19 08:37 | 12.78964 | -69.18554 | 9735 ft | 287 kts | 176° |
| 2026-04-19 08:38 | 12.77003 | -69.18423 | 9470 ft | 279 kts | 176° |
| 2026-04-19 08:38 | 12.75069 | -69.18286 | 9245 ft | 278 kts | 176° |
| 2026-04-19 08:38 | 12.73132 | -69.18147 | 9032 ft | 278 kts | 176° |
| 2026-04-19 08:38 | 12.71219 | -69.18012 | 8787 ft | 274 kts | 176° |
| 2026-04-19 08:39 | 12.69336 | -69.17882 | 8591 ft | 277 kts | 176° |
| 2026-04-19 08:39 | 12.67410 | -69.17751 | 8355 ft | 278 kts | 176° |
| 2026-04-19 08:39 | 12.65482 | -69.17622 | 8128 ft | 277 kts | 176° |
| 2026-04-19 08:39 | 12.63554 | -69.17494 | 7899 ft | 276 kts | 176° |
| 2026-04-19 08:40 | 12.61641 | -69.17368 | 7672 ft | 275 kts | 176° |
| 2026-04-19 08:40 | 12.59737 | -69.17243 | 7448 ft | 273 kts | 176° |
| 2026-04-19 08:40 | 12.57851 | -69.17118 | 7226 ft | 271 kts | 176° |
| 2026-04-19 08:40 | 12.55970 | -69.16994 | 7005 ft | 270 kts | 176° |
| 2026-04-19 08:41 | 12.54101 | -69.16877 | 6787 ft | 268 kts | 177° |
| 2026-04-19 08:41 | 12.52244 | -69.16769 | 6570 ft | 267 kts | 177° |
| 2026-04-19 08:41 | 12.50397 | -69.16664 | 6354 ft | 265 kts | 177° |
| 2026-04-19 08:41 | 12.48556 | -69.16559 | 6139 ft | 264 kts | 177° |
| 2026-04-19 08:42 | 12.46724 | -69.16454 | 5926 ft | 263 kts | 177° |
| 2026-04-19 08:42 | 12.44923 | -69.16352 | 5716 ft | 262 kts | 177° |
| 2026-04-19 08:42 | 12.43077 | -69.16246 | 5501 ft | 261 kts | 177° |
| 2026-04-19 08:42 | 12.41265 | -69.16143 | 5290 ft | 261 kts | 177° |
| 2026-04-19 08:43 | 12.40435 | -69.16096 | 5193 ft | 261 kts | 177° |
| 2026-04-19 08:43 | 12.40226 | -69.16084 | 5169 ft | 260 kts | 177° |
| 2026-04-19 08:43 | 12.38479 | -69.15984 | 4964 ft | 260 kts | 177° |
| 2026-04-19 08:43 | 12.36674 | -69.15880 | 4755 ft | 260 kts | 177° |
| 2026-04-19 08:44 | 12.34869 | -69.15777 | 4542 ft | 259 kts | 177° |
| 2026-04-19 08:44 | 12.33067 | -69.15673 | 4332 ft | 259 kts | 177° |
| 2026-04-19 08:44 | 12.31274 | -69.15568 | 4152 ft | 255 kts | 177° |
| 2026-04-19 08:44 | 12.29513 | -69.15461 | 3919 ft | 251 kts | 176° |
| 2026-04-19 08:45 | 12.27784 | -69.15352 | 3707 ft | 247 kts | 176° |
| 2026-04-19 08:45 | 12.26088 | -69.15239 | 3500 ft | 241 kts | 176° |
| 2026-04-19 08:45 | 12.24431 | -69.15124 | 3302 ft | 235 kts | 176° |
| 2026-04-19 08:45 | 12.22897 | -69.14798 | 3205 ft | 219 kts | 149° |
| 2026-04-19 08:46 | 12.21921 | -69.13735 | 3103 ft | 209 kts | 111° |
| 2026-04-19 08:46 | 12.21676 | -69.12246 | 3057 ft | 215 kts | 90° |
| 2026-04-19 08:46 | 12.21695 | -69.10712 | 2783 ft | 214 kts | 89° |
| 2026-04-19 08:46 | 12.21634 | -69.09252 | 2558 ft | 208 kts | 97° |
| 2026-04-19 08:47 | 12.21379 | -69.07830 | 2366 ft | 199 kts | 102° |
| 2026-04-19 08:47 | 12.21089 | -69.06480 | 2201 ft | 186 kts | 102° |
| 2026-04-19 08:47 | 12.20819 | -69.05221 | 1907 ft | 181 kts | 102° |
| 2026-04-19 08:47 | 12.20560 | -69.03976 | 1545 ft | 178 kts | 102° |
| 2026-04-19 08:48 | 12.20327 | -69.02749 | 1231 ft | 172 kts | 101° |
| 2026-04-19 08:48 | 12.20086 | -69.01556 | 1030 ft | 169 kts | 101° |
| 2026-04-19 08:48 | 12.19847 | -69.00423 | 713 ft | 157 kts | 103° |
| 2026-04-19 08:48 | 12.19689 | -68.99709 | 574 ft | 153 kts | 102° |
| 2026-04-19 08:49 | 12.19587 | -68.99196 | 485 ft | 151 kts | 103° |
| 2026-04-19 08:49 | 12.19369 | -68.98222 | 253 ft | 137 kts | 103° |
| 2026-04-19 08:49 | 12.19156 | -68.97220 | 148 ft | 146 kts | 102° |
| 2026-04-19 08:50 | 12.18941 | -68.96225 | 51 ft | 135 kts | 101° |
| 2026-04-19 08:50 | 12.18782 | -68.95459 | 46 ft | 82 kts | 102° |
| 2026-04-19 08:50 | 12.18697 | -68.95055 | 48 ft | 36 kts | 102° |
| 2026-04-19 08:50 | 12.18677 | -68.94968 | 49 ft | 5 kts | 102° |
| 2026-04-19 08:51 | 12.18673 | -68.94954 | 50 ft | 12 kts | 102° |
| 2026-04-19 08:51 | 12.18646 | -68.94823 | 51 ft | 28 kts | 102° |
| 2026-04-19 08:51 | 12.18596 | -68.94578 | 52 ft | 35 kts | 102° |
| 2026-04-19 08:51 | 12.18450 | -68.94481 | 50 ft | 29 kts | 199° |
| 2026-04-19 08:52 | 12.18425 | -68.94614 | 50 ft | 20 kts | 282° |
| 2026-04-19 08:52 | 12.18454 | -68.94752 | 49 ft | 20 kts | 282° |
| 2026-04-19 08:52 | 12.18483 | -68.94889 | 49 ft | 20 kts | 282° |
| 2026-04-19 08:52 | 12.18514 | -68.95040 | 49 ft | 24 kts | 282° |
| 2026-04-19 08:53 | 12.18549 | -68.95207 | 48 ft | 24 kts | 282° |
| 2026-04-19 08:53 | 12.18584 | -68.95373 | 48 ft | 24 kts | 282° |
| 2026-04-19 08:53 | 12.18619 | -68.95537 | 47 ft | 24 kts | 281° |
| 2026-04-19 08:53 | 12.18655 | -68.95706 | 47 ft | 24 kts | 282° |
| 2026-04-19 08:54 | 12.18679 | -68.95835 | 47 ft | 5 kts | 258° |
| 2026-04-19 08:54 | 12.18636 | -68.95860 | 47 ft | 12 kts | 195° |
| 2026-04-19 08:54 | 12.18579 | -68.95873 | 48 ft | 1 kts | 192° |
| 2026-04-19 08:54 | 12.18575 | -68.95874 | 48 ft | 0 kts | 192° |